Time;durP1;ratioP1;P1;durP2;ratioP2;P2;SDS_P1;SDS_P2;PMS_P1;PMS_P2;Temp;Humidity;BMP_temperature;BMP_pressure;BME280_temperature;BME280_humidity;BME280_pressure;Samples;Min_cycle;Max_cycle;Signal;HPM_P1;HPM_P2
2024/01/12 00:01:19;;;;;;;13.27;4.63;;;-0.20;99.90;;;;;;5082300;28;20071;-76
2024/01/12 00:03:44;;;;;;;12.70;5.43;;;-0.20;99.90;;;;;;5066443;28;20036;-76
2024/01/12 00:06:10;;;;;;;12.73;5.57;;;-0.20;99.90;;;;;;5069801;28;20043;-76
2024/01/12 00:08:39;;;;;;;7.47;4.28;;;-0.10;99.90;;;;;;5072862;28;20435;-76
2024/01/12 00:11:11;;;;;;;10.43;4.38;;;-0.10;99.90;;;;;;5070758;28;20036;-76
2024/01/12 00:13:38;;;;;;;9.20;4.18;;;-0.10;99.90;;;;;;5052065;28;20560;-76
2024/01/12 00:16:07;;;;;;;12.85;5.40;;;0.00;99.90;;;;;;5073587;28;20266;-76
2024/01/12 00:18:36;;;;;;;11.05;6.18;;;0.00;99.90;;;;;;5068412;28;20075;-76
2024/01/12 00:21:02;;;;;;;9.02;5.38;;;0.00;99.90;;;;;;5055447;28;20060;-76
2024/01/12 00:23:28;;;;;;;9.20;4.28;;;0.00;99.90;;;;;;5067543;28;20039;-76
2024/01/12 00:25:58;;;;;;;7.82;5.07;;;0.00;99.90;;;;;;5069058;28;20047;-76
2024/01/12 00:28:26;;;;;;;12.75;4.28;;;0.00;99.90;;;;;;5069706;28;20603;-76
2024/01/12 00:30:52;;;;;;;11.90;4.55;;;0.00;99.90;;;;;;5067964;28;20085;-76
2024/01/12 00:33:18;;;;;;;13.15;5.93;;;0.00;99.90;;;;;;5068889;28;20489;-75
2024/01/12 00:35:44;;;;;;;9.65;6.15;;;0.00;99.90;;;;;;5070155;28;20047;-75
2024/01/12 00:38:10;;;;;;;6.53;3.88;;;0.00;99.90;;;;;;5069281;28;20025;-75
2024/01/12 00:40:36;;;;;;;9.40;4.13;;;0.00;99.90;;;;;;5068974;28;20115;-76
2024/01/12 00:43:01;;;;;;;12.45;3.83;;;0.10;99.90;;;;;;5072453;28;20450;-76
2024/01/12 00:45:27;;;;;;;11.63;5.47;;;0.00;99.90;;;;;;5071486;28;20513;-76
2024/01/12 00:47:52;;;;;;;11.85;4.38;;;0.10;99.90;;;;;;5067691;28;20036;-76
2024/01/12 00:50:18;;;;;;;10.70;4.55;;;0.10;99.90;;;;;;5087221;28;20401;-76
2024/01/12 00:52:44;;;;;;;12.13;5.47;;;0.10;99.90;;;;;;5053464;28;20482;-76
2024/01/12 00:55:11;;;;;;;11.40;4.85;;;0.10;99.90;;;;;;5069662;28;20032;-76
2024/01/12 00:57:37;;;;;;;13.80;5.43;;;0.10;99.90;;;;;;5071642;28;20490;-76
2024/01/12 01:00:04;;;;;;;11.82;5.20;;;0.10;99.90;;;;;;5068005;28;20128;-76
2024/01/12 01:02:30;;;;;;;11.43;4.22;;;0.10;99.90;;;;;;5072634;28;20051;-76
2024/01/12 01:04:56;;;;;;;9.68;4.20;;;0.10;99.90;;;;;;5047814;28;20121;-76
2024/01/12 01:07:22;;;;;;;7.45;3.67;;;0.10;99.90;;;;;;5069332;28;20557;-76
2024/01/12 01:09:48;;;;;;;11.02;3.92;;;0.10;99.90;;;;;;5069873;28;20040;-76
2024/01/12 01:12:14;;;;;;;6.85;3.20;;;0.10;99.90;;;;;;5070479;28;20514;-76
2024/01/12 01:14:39;;;;;;;12.55;5.30;;;0.10;99.90;;;;;;5053287;28;20054;-76
2024/01/12 01:17:05;;;;;;;9.07;3.70;;;0.10;99.90;;;;;;5067827;28;20496;-76
2024/01/12 01:19:30;;;;;;;6.80;3.78;;;0.10;99.90;;;;;;5064602;28;20495;-76
2024/01/12 01:21:56;;;;;;;11.30;3.58;;;0.10;99.90;;;;;;5069279;28;20036;-76
2024/01/12 01:24:26;;;;;;;9.10;4.10;;;0.10;99.90;;;;;;5069542;28;20046;-76
2024/01/12 01:26:52;;;;;;;11.32;4.95;;;0.10;99.90;;;;;;5069841;28;20044;-76
2024/01/12 01:29:18;;;;;;;7.15;3.75;;;0.20;99.90;;;;;;5070535;28;20047;-76
2024/01/12 01:31:44;;;;;;;7.90;3.30;;;0.20;99.90;;;;;;5070823;28;20082;-76
2024/01/12 01:34:09;;;;;;;6.60;3.13;;;0.20;99.90;;;;;;5051751;28;20579;-76
2024/01/12 01:36:35;;;;;;;5.93;2.45;;;0.20;99.90;;;;;;5067414;28;20072;-76
2024/01/12 01:39:01;;;;;;;7.78;3.53;;;0.20;99.90;;;;;;5052041;28;20035;-76
2024/01/12 01:41:27;;;;;;;8.98;3.30;;;0.20;99.90;;;;;;5052501;28;20131;-76
2024/01/12 01:43:52;;;;;;;6.40;2.58;;;0.30;99.90;;;;;;5068298;28;20068;-76
2024/01/12 01:46:19;;;;;;;7.40;3.40;;;0.30;99.90;;;;;;5067122;28;20040;-76
2024/01/12 01:48:45;;;;;;;4.65;2.75;;;0.30;99.90;;;;;;5050502;28;20044;-76
2024/01/12 01:51:11;;;;;;;11.32;2.75;;;0.30;99.90;;;;;;5069091;28;20042;-76
2024/01/12 01:53:37;;;;;;;6.07;2.67;;;0.30;99.90;;;;;;5067347;28;20044;-76
2024/01/12 01:56:04;;;;;;;4.85;2.55;;;0.30;99.90;;;;;;5053762;28;20850;-76
2024/01/12 01:58:30;;;;;;;4.05;1.70;;;0.30;99.90;;;;;;5068356;28;20050;-76
2024/01/12 02:00:56;;;;;;;4.07;1.70;;;0.40;99.90;;;;;;5056052;28;20040;-76
2024/01/12 02:03:22;;;;;;;2.40;1.05;;;0.50;99.90;;;;;;5068586;28;20104;-76
2024/01/12 02:05:50;;;;;;;4.53;1.40;;;0.50;99.90;;;;;;5067070;28;20040;-76
2024/01/12 02:08:16;;;;;;;2.03;1.27;;;0.60;99.90;;;;;;5048370;28;20048;-76
2024/01/12 02:10:42;;;;;;;3.95;1.80;;;0.60;99.90;;;;;;5068962;28;20039;-76
2024/01/12 02:13:07;;;;;;;4.03;1.77;;;0.70;99.90;;;;;;5068814;28;20047;-75
2024/01/12 02:15:33;;;;;;;3.55;1.70;;;0.70;99.90;;;;;;5050390;28;20043;-75
2024/01/12 02:17:59;;;;;;;4.28;2.28;;;0.70;99.90;;;;;;5067698;28;20039;-75
2024/01/12 02:20:24;;;;;;;5.00;1.52;;;0.70;99.90;;;;;;5068270;28;20032;-75
2024/01/12 02:22:50;;;;;;;4.25;1.98;;;0.60;99.90;;;;;;5069342;28;20036;-75
2024/01/12 02:25:17;;;;;;;1.65;0.88;;;0.60;99.90;;;;;;5070635;28;20044;-75
2024/01/12 02:27:43;;;;;;;3.72;1.50;;;0.70;99.90;;;;;;5055906;28;20039;-75
2024/01/12 02:30:09;;;;;;;2.88;1.95;;;0.70;99.90;;;;;;5071508;28;20398;-75
2024/01/12 02:32:34;;;;;;;6.22;1.70;;;0.70;99.90;;;;;;5072088;28;20044;-76
2024/01/12 02:35:00;;;;;;;4.10;1.25;;;0.70;99.90;;;;;;5071872;28;20040;-76
2024/01/12 02:37:26;;;;;;;2.92;1.23;;;0.70;99.90;;;;;;5069509;28;20043;-76
2024/01/12 02:39:51;;;;;;;1.50;0.95;;;0.80;99.90;;;;;;5055013;28;20039;-76
2024/01/12 02:42:17;;;;;;;4.85;1.25;;;0.80;99.90;;;;;;5053904;28;20032;-75
2024/01/12 02:44:43;;;;;;;1.45;0.80;;;0.80;99.90;;;;;;5069769;28;20040;-75
2024/01/12 02:47:08;;;;;;;4.72;1.38;;;0.80;99.90;;;;;;5065486;28;20040;-75
2024/01/12 02:49:34;;;;;;;2.47;1.48;;;0.80;99.90;;;;;;5071042;28;20032;-75
2024/01/12 02:52:00;;;;;;;3.28;1.95;;;0.80;99.90;;;;;;5052628;28;20038;-75
2024/01/12 02:54:25;;;;;;;5.35;1.10;;;0.70;99.90;;;;;;5074512;28;20562;-75
2024/01/12 02:56:52;;;;;;;3.95;1.30;;;0.70;99.90;;;;;;5069395;28;20028;-75
2024/01/12 02:59:18;;;;;;;2.05;1.17;;;0.80;99.90;;;;;;5073693;28;20032;-75
2024/01/12 03:01:43;;;;;;;2.85;1.17;;;0.80;99.90;;;;;;5070888;28;20150;-75
2024/01/12 03:04:09;;;;;;;3.60;1.35;;;0.80;99.90;;;;;;5069036;28;20036;-75
2024/01/12 03:06:35;;;;;;;3.88;1.63;;;0.80;99.90;;;;;;5072215;28;20047;-75
2024/01/12 03:09:00;;;;;;;1.95;0.82;;;0.80;99.90;;;;;;5070868;28;20153;-75
2024/01/12 03:11:26;;;;;;;2.75;1.30;;;0.70;99.90;;;;;;5073946;28;20032;-75
2024/01/12 03:13:51;;;;;;;2.92;1.27;;;0.70;99.90;;;;;;5054061;28;20511;-75
2024/01/12 03:16:21;;;;;;;4.13;1.38;;;0.70;99.90;;;;;;5085864;28;20036;-75
2024/01/12 03:18:49;;;;;;;3.03;1.15;;;0.70;99.90;;;;;;5054698;28;20040;-75
2024/01/12 03:21:16;;;;;;;5.00;1.60;;;0.70;99.90;;;;;;5054317;28;20379;-75
2024/01/12 03:23:42;;;;;;;4.43;1.80;;;0.60;99.90;;;;;;5071350;28;20032;-75
2024/01/12 03:26:08;;;;;;;2.50;1.15;;;0.60;99.90;;;;;;5068189;28;20039;-75
2024/01/12 03:28:36;;;;;;;3.40;1.48;;;0.60;99.90;;;;;;5067878;28;20032;-75
2024/01/12 03:31:06;;;;;;;4.15;1.15;;;0.60;99.90;;;;;;5068746;28;20032;-75
2024/01/12 03:33:33;;;;;;;2.28;1.20;;;0.60;99.90;;;;;;5066818;28;20044;-75
2024/01/12 03:36:00;;;;;;;2.42;1.10;;;0.60;99.90;;;;;;5059435;28;20039;-75
2024/01/12 03:38:25;;;;;;;4.75;2.08;;;0.60;99.90;;;;;;5051588;28;20032;-75
2024/01/12 03:40:51;;;;;;;5.15;1.30;;;0.60;99.90;;;;;;5067202;28;20035;-75
2024/01/12 03:43:17;;;;;;;2.72;1.52;;;0.60;99.90;;;;;;5054770;28;20035;-75
2024/01/12 03:45:42;;;;;;;1.90;0.93;;;0.60;99.90;;;;;;5072386;28;20452;-75
2024/01/12 03:48:08;;;;;;;2.90;1.25;;;0.60;99.90;;;;;;5069324;28;20043;-75
2024/01/12 03:50:34;;;;;;;6.85;1.55;;;0.60;99.90;;;;;;5069071;28;20040;-75
2024/01/12 03:52:59;;;;;;;2.63;1.10;;;0.60;99.90;;;;;;5054256;28;20035;-75
2024/01/12 03:55:25;;;;;;;2.72;0.73;;;0.60;99.90;;;;;;5051265;28;20411;-75
2024/01/12 03:57:50;;;;;;;4.80;1.33;;;0.60;99.90;;;;;;5070149;28;20044;-75
2024/01/12 04:00:16;;;;;;;3.78;1.75;;;0.60;99.90;;;;;;5054405;28;20051;-75
2024/01/12 04:02:42;;;;;;;2.47;1.33;;;0.50;99.90;;;;;;5067293;28;20042;-75
2024/01/12 04:05:09;;;;;;;6.22;2.10;;;0.50;99.90;;;;;;5071233;28;20035;-75
2024/01/12 04:07:35;;;;;;;3.13;1.10;;;0.50;99.90;;;;;;5070124;28;20043;-75
2024/01/12 04:10:00;;;;;;;3.67;1.77;;;0.50;99.90;;;;;;5074716;28;20040;-75
2024/01/12 04:12:26;;;;;;;1.85;0.80;;;0.50;99.90;;;;;;5071080;28;20036;-75
2024/01/12 04:14:52;;;;;;;2.53;1.15;;;0.40;99.90;;;;;;5052367;28;20046;-75
2024/01/12 04:17:17;;;;;;;2.58;1.23;;;0.40;99.90;;;;;;5052862;28;20132;-75
2024/01/12 04:19:43;;;;;;;2.47;1.38;;;0.30;99.90;;;;;;5051554;28;20111;-75
2024/01/12 04:22:08;;;;;;;2.88;1.23;;;0.30;99.90;;;;;;5051001;28;20063;-75
2024/01/12 04:24:34;;;;;;;2.20;1.25;;;0.30;99.90;;;;;;5070096;28;20043;-75
2024/01/12 04:27:00;;;;;;;3.30;1.05;;;0.30;99.90;;;;;;5054940;28;20035;-75
2024/01/12 04:29:25;;;;;;;1.92;0.88;;;0.30;99.90;;;;;;5068734;28;20512;-75
2024/01/12 04:31:51;;;;;;;5.70;1.77;;;0.20;99.90;;;;;;5068458;28;20068;-75
2024/01/12 04:34:17;;;;;;;1.70;0.85;;;0.20;99.90;;;;;;5069533;28;20043;-75
2024/01/12 04:36:43;;;;;;;1.98;0.82;;;0.20;99.90;;;;;;5066606;28;20036;-75
2024/01/12 04:39:08;;;;;;;3.42;1.50;;;0.20;99.90;;;;;;5067338;28;20093;-75
2024/01/12 04:41:34;;;;;;;3.72;1.48;;;0.20;99.90;;;;;;5072265;28;20090;-75
2024/01/12 04:44:00;;;;;;;2.45;1.20;;;0.20;99.90;;;;;;5067350;28;20059;-75
2024/01/12 04:46:26;;;;;;;2.60;1.38;;;0.20;99.90;;;;;;5088611;28;20397;-75
2024/01/12 04:48:51;;;;;;;6.35;1.70;;;0.30;99.90;;;;;;5068188;28;20072;-75
2024/01/12 04:51:18;;;;;;;3.60;0.95;;;0.30;99.90;;;;;;5072903;28;20040;-75
2024/01/12 04:53:43;;;;;;;3.72;0.95;;;0.30;99.90;;;;;;5066298;28;20111;-75
2024/01/12 04:56:09;;;;;;;1.38;0.85;;;0.30;99.90;;;;;;5068622;28;20616;-75
2024/01/12 04:58:35;;;;;;;2.70;1.15;;;0.40;99.90;;;;;;5060858;28;20025;-75
2024/01/12 05:01:00;;;;;;;1.75;0.90;;;0.40;99.90;;;;;;5068215;28;20064;-75
2024/01/12 05:03:26;;;;;;;1.73;1.02;;;0.50;99.90;;;;;;5064497;28;20093;-75
2024/01/12 05:05:52;;;;;;;1.67;1.02;;;0.50;99.90;;;;;;5068440;28;20032;-75
2024/01/12 05:08:17;;;;;;;1.67;1.00;;;0.50;99.90;;;;;;5067901;28;20043;-75
2024/01/12 05:10:43;;;;;;;3.63;1.00;;;0.50;99.90;;;;;;5048824;28;20052;-75
2024/01/12 05:13:09;;;;;;;1.98;0.95;;;0.50;99.90;;;;;;5069777;28;20048;-75
2024/01/12 05:15:34;;;;;;;2.25;1.30;;;0.50;99.90;;;;;;5051867;28;20493;-75
2024/01/12 05:18:00;;;;;;;2.33;1.15;;;0.50;99.90;;;;;;5070526;28;20039;-75
2024/01/12 05:20:26;;;;;;;2.80;1.20;;;0.50;99.90;;;;;;5068566;28;20032;-75
2024/01/12 05:22:51;;;;;;;2.85;0.90;;;0.50;99.90;;;;;;5064171;28;20031;-75
2024/01/12 05:25:17;;;;;;;2.03;0.90;;;0.50;99.90;;;;;;5069637;28;20032;-75
2024/01/12 05:27:43;;;;;;;1.88;0.80;;;0.40;99.90;;;;;;5066698;28;20515;-75
2024/01/12 05:30:09;;;;;;;2.60;1.10;;;0.50;99.90;;;;;;5067184;28;20062;-75
2024/01/12 05:32:34;;;;;;;6.90;1.40;;;0.50;99.90;;;;;;5059391;28;20059;-75
2024/01/12 05:35:00;;;;;;;5.00;1.15;;;0.50;99.90;;;;;;5068230;28;20121;-75
2024/01/12 05:37:26;;;;;;;2.15;0.68;;;0.50;99.90;;;;;;5062861;28;20069;-75
2024/01/12 05:39:52;;;;;;;2.55;1.23;;;0.50;99.90;;;;;;5051540;28;20440;-75
2024/01/12 05:42:17;;;;;;;1.60;1.05;;;0.50;99.90;;;;;;5052494;28;20558;-75
2024/01/12 05:44:43;;;;;;;1.08;0.65;;;0.50;99.90;;;;;;5069878;28;20545;-75
2024/01/12 05:47:09;;;;;;;2.88;0.93;;;0.50;99.90;;;;;;5052548;28;20370;-75
2024/01/12 05:49:37;;;;;;;1.00;0.47;;;0.50;99.90;;;;;;5067216;28;20048;-75
2024/01/12 05:52:03;;;;;;;3.47;1.15;;;0.50;99.90;;;;;;5069354;28;20040;-75
2024/01/12 05:54:28;;;;;;;1.17;0.75;;;0.50;99.90;;;;;;5068703;28;20060;-75
2024/01/12 05:56:54;;;;;;;4.82;1.13;;;0.50;99.90;;;;;;5071023;28;20173;-75
2024/01/12 05:59:20;;;;;;;1.63;0.85;;;0.50;99.90;;;;;;5069055;28;20394;-75
2024/01/12 06:01:46;;;;;;;0.95;0.60;;;0.50;99.90;;;;;;5069492;28;20323;-75
2024/01/12 06:04:12;;;;;;;3.85;0.95;;;0.50;99.90;;;;;;5056074;28;20404;-75
2024/01/12 06:06:40;;;;;;;2.58;1.00;;;0.50;99.90;;;;;;5057443;28;20360;-75
2024/01/12 06:09:06;;;;;;;2.35;0.93;;;0.50;99.90;;;;;;5073920;28;20036;-75
2024/01/12 06:11:31;;;;;;;1.98;1.42;;;0.50;99.90;;;;;;5059092;28;20028;-75
2024/01/12 06:13:57;;;;;;;1.25;0.68;;;0.50;99.90;;;;;;5075033;28;20510;-75
2024/01/12 06:16:23;;;;;;;1.17;0.68;;;0.50;99.90;;;;;;5073146;28;20039;-75
2024/01/12 06:18:48;;;;;;;2.83;0.95;;;0.50;99.90;;;;;;5054155;28;20410;-75
2024/01/12 06:21:14;;;;;;;4.85;1.33;;;0.50;99.90;;;;;;5074349;28;20040;-75
2024/01/12 06:23:40;;;;;;;3.60;1.20;;;0.50;99.90;;;;;;5074338;28;20029;-75
2024/01/12 06:26:06;;;;;;;3.67;1.20;;;0.50;99.90;;;;;;5070643;28;20044;-75
2024/01/12 06:28:31;;;;;;;3.63;1.23;;;0.60;99.90;;;;;;5070900;28;20041;-75
2024/01/12 06:30:57;;;;;;;1.65;1.33;;;0.50;99.90;;;;;;5055062;28;20032;-75
2024/01/12 06:33:22;;;;;;;1.02;0.68;;;0.60;99.90;;;;;;5071721;28;20094;-75
2024/01/12 06:35:48;;;;;;;2.65;0.85;;;0.60;99.90;;;;;;5072851;28;20079;-75
2024/01/12 06:38:14;;;;;;;1.20;0.70;;;0.60;99.90;;;;;;5070453;28;20036;-75
2024/01/12 06:40:39;;;;;;;1.83;0.65;;;0.60;99.90;;;;;;5057669;28;20537;-75
2024/01/12 06:43:05;;;;;;;3.75;1.00;;;0.60;99.90;;;;;;5070954;28;20441;-75
2024/01/12 06:45:31;;;;;;;4.20;0.93;;;0.60;99.90;;;;;;5067225;28;20044;-75
2024/01/12 06:47:56;;;;;;;2.80;1.05;;;0.60;99.90;;;;;;5071594;28;20391;-75
2024/01/12 06:50:22;;;;;;;2.88;1.30;;;0.60;99.90;;;;;;5072914;28;20602;-75
2024/01/12 06:52:48;;;;;;;2.55;1.05;;;0.60;99.90;;;;;;5072235;28;20044;-75
2024/01/12 06:55:13;;;;;;;2.90;1.23;;;0.60;99.90;;;;;;5072341;28;20081;-75
2024/01/12 06:57:39;;;;;;;1.60;0.70;;;0.60;99.90;;;;;;5072318;28;20545;-75
2024/01/12 07:00:06;;;;;;;2.40;1.38;;;0.60;99.90;;;;;;5072138;28;20097;-75
2024/01/12 07:02:33;;;;;;;2.55;1.10;;;0.70;99.90;;;;;;5055683;28;20032;-75
2024/01/12 07:04:59;;;;;;;2.45;1.00;;;0.60;99.90;;;;;;5072056;28;20067;-75
2024/01/12 07:07:25;;;;;;;1.27;0.90;;;0.70;99.90;;;;;;5072270;28;20128;-74
2024/01/12 07:09:50;;;;;;;3.40;1.20;;;0.70;99.90;;;;;;5071251;28;20587;-75
2024/01/12 07:12:16;;;;;;;2.63;1.17;;;0.70;99.90;;;;;;5072957;28;20062;-75
2024/01/12 07:14:42;;;;;;;3.35;1.15;;;0.70;99.90;;;;;;5072285;28;20055;-75
2024/01/12 07:17:07;;;;;;;2.08;0.90;;;0.70;99.90;;;;;;5069819;28;20032;-75
2024/01/12 07:19:33;;;;;;;1.70;0.90;;;0.80;99.90;;;;;;5054915;28;20036;-75
2024/01/12 07:21:58;;;;;;;2.83;1.15;;;0.80;99.90;;;;;;5051445;28;20067;-75
2024/01/12 07:24:24;;;;;;;2.30;1.20;;;0.80;99.90;;;;;;5067771;28;20044;-75
2024/01/12 07:26:50;;;;;;;2.80;0.90;;;0.80;99.90;;;;;;5067003;28;20036;-75
2024/01/12 07:29:16;;;;;;;1.95;1.05;;;0.80;99.90;;;;;;5067185;28;20397;-75
2024/01/12 07:31:42;;;;;;;4.13;1.25;;;0.80;99.90;;;;;;5064385;28;20120;-75
2024/01/12 07:34:08;;;;;;;0.93;0.47;;;0.80;99.90;;;;;;5086889;28;20492;-75
2024/01/12 07:36:34;;;;;;;1.77;1.02;;;0.90;99.90;;;;;;5054744;28;20032;-75
2024/01/12 07:38:59;;;;;;;7.90;0.60;;;0.90;99.90;;;;;;5088457;28;20486;-75
2024/01/12 07:41:26;;;;;;;1.73;0.93;;;0.90;99.90;;;;;;5070330;28;20040;-75
2024/01/12 07:43:53;;;;;;;2.72;0.98;;;0.90;99.90;;;;;;5071617;28;20111;-75
2024/01/12 07:46:19;;;;;;;1.63;0.65;;;0.90;99.90;;;;;;5068452;28;20093;-74
2024/01/12 07:48:49;;;;;;;5.22;1.30;;;0.90;99.90;;;;;;5052239;28;20040;-75
2024/01/12 07:51:15;;;;;;;1.63;0.90;;;0.90;99.90;;;;;;5053634;28;20060;-75
2024/01/12 07:53:41;;;;;;;2.50;0.88;;;0.90;99.90;;;;;;5069889;28;20028;-75
2024/01/12 07:56:07;;;;;;;3.63;1.40;;;1.00;99.90;;;;;;5068897;28;20430;-75
2024/01/12 07:58:34;;;;;;;3.10;1.08;;;0.90;99.90;;;;;;5069692;28;20484;-75
2024/01/12 08:01:00;;;;;;;10.55;1.15;;;1.00;99.90;;;;;;5045900;28;20035;-74
2024/01/12 08:03:25;;;;;;;1.40;0.60;;;1.00;99.90;;;;;;5067241;28;20043;-74
2024/01/12 08:05:51;;;;;;;1.60;0.70;;;1.00;99.90;;;;;;5070392;28;20058;-74
2024/01/12 08:08:18;;;;;;;1.48;0.68;;;1.00;99.90;;;;;;5066151;28;20044;-74
2024/01/12 08:10:45;;;;;;;4.40;0.60;;;1.00;99.90;;;;;;5048442;28;20036;-74
2024/01/12 08:13:10;;;;;;;2.10;0.93;;;1.00;99.90;;;;;;5067545;28;20119;-74
2024/01/12 08:15:36;;;;;;;2.45;0.75;;;1.00;99.90;;;;;;5069094;28;20512;-76
2024/01/12 08:18:02;;;;;;;1.27;0.73;;;1.00;99.90;;;;;;5065823;28;21190;-75
2024/01/12 08:20:28;;;;;;;1.65;0.93;;;1.00;99.90;;;;;;5071170;28;20068;-75
2024/01/12 08:22:53;;;;;;;2.22;1.00;;;1.00;99.90;;;;;;5068992;28;20169;-74
2024/01/12 08:25:19;;;;;;;1.90;0.60;;;1.00;99.90;;;;;;5053158;28;20051;-74
2024/01/12 08:27:45;;;;;;;2.78;1.20;;;1.00;99.90;;;;;;5067537;28;20043;-75
2024/01/12 08:30:11;;;;;;;3.80;1.02;;;1.00;99.90;;;;;;5050418;28;20039;-74
2024/01/12 08:32:36;;;;;;;0.93;0.65;;;1.00;99.90;;;;;;5066436;28;20509;-75
2024/01/12 08:35:02;;;;;;;1.17;0.82;;;1.00;99.90;;;;;;5068601;28;20697;-75
2024/01/12 08:37:28;;;;;;;0.82;0.55;;;1.00;99.90;;;;;;5050335;28;20036;-75
2024/01/12 08:39:53;;;;;;;1.75;0.70;;;1.00;99.90;;;;;;5051203;28;20039;-75
2024/01/12 08:42:19;;;;;;;2.08;0.77;;;1.00;99.90;;;;;;5050910;28;20036;-75
2024/01/12 08:44:45;;;;;;;3.22;1.38;;;1.10;99.90;;;;;;5068388;28;20076;-75
2024/01/12 08:47:10;;;;;;;1.15;0.77;;;1.10;99.90;;;;;;5050408;28;20036;-75
2024/01/12 08:49:36;;;;;;;2.03;0.82;;;1.10;99.90;;;;;;5049358;28;20059;-74
2024/01/12 08:52:03;;;;;;;2.00;0.60;;;1.10;99.90;;;;;;5068277;28;20037;-75
2024/01/12 08:54:28;;;;;;;0.88;0.47;;;1.10;99.90;;;;;;5092513;28;20093;-75
2024/01/12 08:56:54;;;;;;;2.75;0.95;;;1.10;99.90;;;;;;5063662;28;20036;-75
2024/01/12 08:59:20;;;;;;;1.83;0.55;;;1.20;99.90;;;;;;5073904;28;20035;-75
2024/01/12 09:01:46;;;;;;;0.65;0.52;;;1.20;99.90;;;;;;5053471;28;20370;-75
2024/01/12 09:04:12;;;;;;;2.22;0.65;;;1.20;99.90;;;;;;5068829;28;20123;-75
2024/01/12 09:06:37;;;;;;;1.17;0.68;;;1.20;99.90;;;;;;5050270;28;21862;-75
2024/01/12 09:09:03;;;;;;;1.20;0.40;;;1.20;99.90;;;;;;5068583;28;20078;-75
2024/01/12 09:11:29;;;;;;;2.53;0.82;;;1.20;99.90;;;;;;5068808;28;20031;-75
2024/01/12 09:13:54;;;;;;;2.95;0.70;;;1.20;99.90;;;;;;5065801;28;20123;-76
2024/01/12 09:16:20;;;;;;;1.90;0.50;;;1.30;99.90;;;;;;5070570;28;20032;-75
2024/01/12 09:18:48;;;;;;;2.88;0.70;;;1.30;99.90;;;;;;5048701;28;20499;-76
2024/01/12 09:21:15;;;;;;;1.83;0.68;;;1.30;99.90;;;;;;5069438;28;20051;-77
2024/01/12 09:23:44;;;;;;;2.28;1.33;;;1.30;99.90;;;;;;5051175;28;20528;-75
2024/01/12 09:26:13;;;;;;;0.88;0.43;;;1.30;99.90;;;;;;5057159;28;20453;-76
2024/01/12 09:28:39;;;;;;;1.55;0.68;;;1.30;99.90;;;;;;5053817;28;20032;-75
2024/01/12 09:31:05;;;;;;;2.88;0.45;;;1.30;99.90;;;;;;5049432;28;20039;-75
2024/01/12 09:33:31;;;;;;;1.42;0.88;;;1.30;99.90;;;;;;5071221;28;20024;-75
2024/01/12 09:35:57;;;;;;;1.27;0.65;;;1.30;99.90;;;;;;5063871;28;20498;-76
2024/01/12 09:38:22;;;;;;;2.50;1.05;;;1.30;99.90;;;;;;5066464;28;20397;-76
2024/01/12 09:40:48;;;;;;;3.13;0.65;;;1.40;99.90;;;;;;5066083;28;20047;-75
2024/01/12 09:43:14;;;;;;;4.00;0.98;;;1.40;99.90;;;;;;5067815;28;20052;-76
2024/01/12 09:45:45;;;;;;;3.15;0.70;;;1.40;99.90;;;;;;5050952;28;20040;-76
2024/01/12 09:48:11;;;;;;;1.35;0.60;;;1.40;99.90;;;;;;5066029;28;20390;-76
2024/01/12 09:50:38;;;;;;;2.70;0.95;;;1.50;99.90;;;;;;5066381;28;20047;-76
2024/01/12 09:53:05;;;;;;;2.25;0.73;;;1.50;99.90;;;;;;5067682;28;20047;-76
2024/01/12 09:55:30;;;;;;;5.07;0.90;;;1.50;99.90;;;;;;5066550;28;20036;-76
2024/01/12 09:57:56;;;;;;;3.20;0.80;;;1.60;99.90;;;;;;5065900;28;20516;-76
2024/01/12 10:00:25;;;;;;;3.38;0.60;;;1.60;99.90;;;;;;5054869;28;20131;-76
2024/01/12 10:02:52;;;;;;;1.63;0.88;;;1.60;99.90;;;;;;5047995;28;20504;-76
2024/01/12 10:05:17;;;;;;;4.20;0.88;;;1.60;99.90;;;;;;5059118;28;20044;-76
2024/01/12 10:07:43;;;;;;;0.90;0.50;;;1.70;99.90;;;;;;5066755;28;20035;-77
2024/01/12 10:10:09;;;;;;;6.50;0.90;;;1.70;99.90;;;;;;5066127;28;20123;-77
2024/01/12 10:12:35;;;;;;;3.78;0.70;;;1.70;99.90;;;;;;5046639;28;20118;-77
2024/01/12 10:15:11;;;;;;;0.80;0.40;;;1.80;99.90;;;;;;5067476;28;20036;-77
2024/01/12 10:17:36;;;;;;;1.33;0.35;;;1.80;99.90;;;;;;5066056;28;20040;-77
2024/01/12 10:20:05;;;;;;;1.27;0.45;;;1.80;99.90;;;;;;5067138;28;20616;-78
2024/01/12 10:22:31;;;;;;;8.23;1.38;;;1.80;99.90;;;;;;5053359;28;20036;-78
2024/01/12 10:25:03;;;;;;;1.58;0.60;;;1.90;99.90;;;;;;5065102;28;20028;-78
2024/01/12 10:27:29;;;;;;;4.47;0.68;;;1.90;99.90;;;;;;5068513;28;20489;-78
2024/01/12 10:29:56;;;;;;;6.95;1.05;;;1.90;99.90;;;;;;5067082;28;20036;-78
2024/01/12 10:32:22;;;;;;;0.52;0.40;;;2.00;99.90;;;;;;5053201;28;20070;-78
2024/01/12 10:34:49;;;;;;;7.38;1.40;;;2.00;99.90;;;;;;5068735;28;20502;-78
2024/01/12 10:37:16;;;;;;;2.13;0.60;;;2.00;99.90;;;;;;5066696;28;20040;-78
2024/01/12 10:39:44;;;;;;;7.72;0.55;;;2.10;99.90;;;;;;5061315;28;20036;-78
2024/01/12 10:42:12;;;;;;;6.18;0.80;;;2.10;99.90;;;;;;5067568;28;20347;-78
2024/01/12 10:44:42;;;;;;;0.93;0.50;;;2.20;99.90;;;;;;5051883;28;20075;-78
2024/01/12 10:47:20;;;;;;;1.38;0.30;;;2.20;99.90;;;;;;5056682;28;20086;-78
2024/01/12 10:50:04;;;;;;;2.83;0.40;;;2.20;99.90;;;;;;5067361;28;20081;-78
2024/01/12 10:52:53;;;;;;;1.73;0.60;;;2.30;99.90;;;;;;5068350;28;20040;-78
2024/01/12 10:55:22;;;;;;;0.57;0.30;;;2.40;99.90;;;;;;5074577;28;20363;-78
2024/01/12 10:57:49;;;;;;;0.52;0.38;;;2.40;99.90;;;;;;5049886;28;20036;-78
2024/01/12 11:00:16;;;;;;;1.77;0.40;;;2.50;99.90;;;;;;5069047;28;20174;-78
2024/01/12 11:02:43;;;;;;;5.35;0.35;;;2.50;99.90;;;;;;5074955;28;20116;-78
2024/01/12 11:05:10;;;;;;;1.17;0.50;;;2.60;99.90;;;;;;5071715;28;20123;-77
2024/01/12 11:07:39;;;;;;;2.67;0.40;;;2.60;99.90;;;;;;5051697;28;20678;-79
2024/01/12 11:10:06;;;;;;;1.35;0.40;;;2.60;99.90;;;;;;5053127;28;20036;-78
2024/01/12 11:12:35;;;;;;;1.08;0.32;;;2.60;99.90;;;;;;5073078;28;20037;-78
2024/01/12 11:15:02;;;;;;;9.63;0.68;;;2.70;99.90;;;;;;5067007;28;20036;-78
2024/01/12 11:17:35;;;;;;;2.95;0.57;;;2.70;99.90;;;;;;5068728;28;20506;-77
2024/01/12 11:20:10;;;;;;;0.93;0.22;;;2.70;99.90;;;;;;5055665;28;20457;-77
2024/01/12 11:22:39;;;;;;;3.45;0.52;;;2.70;99.90;;;;;;5055240;28;20439;-77
2024/01/12 11:25:06;;;;;;;0.90;0.45;;;2.70;99.90;;;;;;5070756;28;20105;-78
2024/01/12 11:27:37;;;;;;;4.57;0.40;;;2.70;99.90;;;;;;5054675;28;20040;-78
2024/01/12 11:30:04;;;;;;;0.75;0.50;;;2.70;99.90;;;;;;5057034;28;20096;-78
2024/01/12 11:32:31;;;;;;;1.10;0.40;;;2.80;99.90;;;;;;5053226;28;20043;-78
2024/01/12 11:35:19;;;;;;;2.20;0.47;;;2.80;99.90;;;;;;5074287;28;20406;-78
2024/01/12 11:37:58;;;;;;;0.85;0.35;;;2.70;99.90;;;;;;5070870;28;20047;-76
2024/01/12 11:40:24;;;;;;;1.38;0.50;;;2.80;99.90;;;;;;5053843;28;20040;-78
2024/01/12 11:42:51;;;;;;;0.45;0.22;;;2.80;99.90;;;;;;5068747;28;20078;-79
2024/01/12 11:45:18;;;;;;;1.42;0.43;;;2.80;99.90;;;;;;5054629;28;20625;-79
2024/01/12 11:47:44;;;;;;;2.13;0.28;;;2.80;99.90;;;;;;5065467;28;20055;-78
2024/01/12 11:50:15;;;;;;;0.70;0.45;;;2.80;99.90;;;;;;5073418;28;20036;-78
2024/01/12 11:52:41;;;;;;;1.63;0.60;;;2.80;99.90;;;;;;5066781;28;20036;-78
2024/01/12 11:55:10;;;;;;;54.83;18.83;;;2.80;99.90;;;;;;5050598;28;20051;-80
2024/01/12 11:57:37;;;;;;;10.93;6.30;;;2.80;99.90;;;;;;5065419;28;20040;-79
2024/01/12 12:00:04;;;;;;;3.65;0.90;;;2.90;99.90;;;;;;5048953;28;20336;-79
2024/01/12 12:02:30;;;;;;;2.28;0.50;;;2.80;99.90;;;;;;5069927;28;20036;-79
2024/01/12 12:04:56;;;;;;;3.00;0.50;;;2.90;99.90;;;;;;5052312;28;20036;-79
2024/01/12 12:07:27;;;;;;;1.88;0.80;;;2.90;99.90;;;;;;5065746;28;20402;-80
2024/01/12 12:09:54;;;;;;;0.32;0.20;;;2.90;99.90;;;;;;5056702;28;20047;-79
2024/01/12 12:12:20;;;;;;;1.38;0.63;;;2.90;99.90;;;;;;5070038;28;20036;-79
2024/01/12 12:14:56;;;;;;;8.13;4.25;;;2.90;99.90;;;;;;5064013;28;20056;-78
2024/01/12 12:17:25;;;;;;;2.03;1.15;;;2.90;99.90;;;;;;5052463;28;20479;-79
2024/01/12 12:19:51;;;;;;;0.90;0.43;;;2.90;99.90;;;;;;5069019;28;20028;-79
2024/01/12 12:22:17;;;;;;;1.63;0.38;;;2.90;99.90;;;;;;5067865;28;20058;-79
2024/01/12 12:24:43;;;;;;;1.58;0.60;;;2.90;99.90;;;;;;5072093;28;20040;-78
2024/01/12 12:27:09;;;;;;;0.75;0.40;;;2.90;99.90;;;;;;5073289;28;20036;-78
2024/01/12 12:29:35;;;;;;;2.72;0.50;;;2.90;99.90;;;;;;5069491;28;20485;-79
2024/01/12 12:32:01;;;;;;;1.02;0.75;;;2.80;99.90;;;;;;5072712;28;20040;-79
2024/01/12 12:34:32;;;;;;;0.95;0.35;;;2.80;99.90;;;;;;5085036;28;20485;-79
2024/01/12 12:36:57;;;;;;;2.35;0.57;;;2.80;99.90;;;;;;5055690;28;20039;-79
2024/01/12 12:39:23;;;;;;;1.33;0.40;;;2.90;99.90;;;;;;5038599;28;20093;-79
2024/01/12 12:41:49;;;;;;;0.75;0.40;;;2.90;99.90;;;;;;5055310;28;20050;-80
2024/01/12 12:44:15;;;;;;;0.88;0.50;;;2.90;99.90;;;;;;5070558;28;20301;-79
2024/01/12 12:46:40;;;;;;;0.50;0.30;;;2.90;99.90;;;;;;5072666;28;20044;-79
2024/01/12 12:49:11;;;;;;;3.08;0.63;;;2.90;99.90;;;;;;5066336;28;20044;-78
2024/01/12 12:51:36;;;;;;;2.72;0.50;;;2.90;99.90;;;;;;5055070;28;20047;-79